Time;durP1;ratioP1;P1;durP2;ratioP2;P2;SDS_P1;SDS_P2;PMS_P1;PMS_P2;Temp;Humidity;BMP_temperature;BMP_pressure;BME280_temperature;BME280_humidity;BME280_pressure;Samples;Min_cycle;Max_cycle;Signal;HPM_P1;HPM_P2
2022/10/20 00:01:02;;;;;;;;;;;;;;;18.69;42.61;95594.09;6120602;19;1135;-67
2022/10/20 00:03:08;;;;;;;;;;;;;;;18.68;43.13;95590.63;6107433;19;1847;-67
2022/10/20 00:05:11;;;;;;;;;;;;;;;18.69;43.04;95594.09;6119458;19;1317;-67
2022/10/20 00:07:14;;;;;;;;;;;;;;;18.67;43.15;95594.31;6124100;19;2000;-68
2022/10/20 00:09:18;;;;;;;;;;;;;;;18.68;43.24;95587.97;6124186;19;1564;-67
2022/10/20 00:11:22;;;;;;;;;;;;;;;18.68;43.15;95589.81;6124317;19;1516;-67
2022/10/20 00:13:26;;;;;;;;;;;;;;;18.68;43.13;95589.81;6113412;19;1757;-68
2022/10/20 00:15:29;;;;;;;;;;;;;;;18.68;43.22;95589.81;6120350;19;1391;-69
2022/10/20 00:17:32;;;;;;;;;;;;;;;18.67;42.88;95589.00;6122554;19;1857;-68
2022/10/20 00:19:39;;;;;;;;;;;;;;;18.68;43.03;95584.47;6120803;19;954;-68
2022/10/20 00:21:42;;;;;;;;;;;;;;;18.67;43.28;95590.81;6121010;19;1057;-67
2022/10/20 00:23:45;;;;;;;;;;;;;;;18.68;42.86;95597.78;6123935;19;1251;-67
2022/10/20 00:25:49;;;;;;;;;;;;;;;18.67;43.41;95596.97;6106051;19;973;-68
2022/10/20 00:27:52;;;;;;;;;;;;;;;18.68;43.21;95587.97;6120117;19;1045;-67
2022/10/20 00:29:55;;;;;;;;;;;;;;;18.68;43.03;95611.91;6120425;19;1022;-67
2022/10/20 00:31:59;;;;;;;;;;;;;;;18.68;43.00;95589.81;6123773;19;1601;-68
2022/10/20 00:34:02;;;;;;;;;;;;;;;18.67;43.09;95594.31;6123459;19;1792;-67
2022/10/20 00:36:10;;;;;;;;;;;;;;;18.67;43.08;95591.66;6116508;19;1791;-68
2022/10/20 00:38:13;;;;;;;;;;;;;;;18.67;43.17;95577.53;6112440;19;1848;-70
2022/10/20 00:40:16;;;;;;;;;;;;;;;18.68;43.28;95579.16;6121413;19;1414;-67
2022/10/20 00:42:20;;;;;;;;;;;;;;;18.66;43.06;95576.66;6121818;19;1510;-67
2022/10/20 00:44:39;;;;;;;;;;;;;;;18.67;43.27;95572.19;6121642;19;1506;-67
2022/10/20 00:46:43;;;;;;;;;;;;;;;18.67;43.63;95566.88;6121206;19;1803;-67
2022/10/20 00:48:48;;;;;;;;;;;;;;;18.67;43.47;95569.53;6104349;19;1445;-67
2022/10/20 00:50:52;;;;;;;;;;;;;;;18.67;43.44;95577.53;6122822;19;1666;-67
2022/10/20 00:52:59;;;;;;;;;;;;;;;18.67;43.27;95574.84;6119813;19;1129;-67
2022/10/20 00:55:03;;;;;;;;;;;;;;;18.67;43.64;95566.88;6122073;19;1386;-68
2022/10/20 00:57:06;;;;;;;;;;;;;;;18.67;43.65;95557.03;6120098;19;1849;-67
2022/10/20 00:59:10;;;;;;;;;;;;;;;18.68;43.43;95565.84;6112688;19;2089;-70
2022/10/20 01:01:14;;;;;;;;;;;;;;;18.67;43.47;95564.22;6117404;19;2013;-68
2022/10/20 01:03:19;;;;;;;;;;;;;;;18.67;43.56;95567.69;6121309;19;1818;-68
2022/10/20 01:05:23;;;;;;;;;;;;;;;18.67;43.44;95573.03;6121268;19;1490;-68
2022/10/20 01:07:26;;;;;;;;;;;;;;;18.67;43.37;95573.03;6121667;19;1435;-67
2022/10/20 01:09:33;;;;;;;;;;;;;;;18.67;43.86;95577.53;6119624;19;1050;-67
2022/10/20 01:11:41;;;;;;;;;;;;;;;18.67;44.04;95580.19;6105397;19;1497;-68
2022/10/20 01:13:49;;;;;;;;;;;;;;;18.67;43.86;95574.84;6122587;19;1748;-67
2022/10/20 01:15:57;;;;;;;;;;;;;;;18.67;43.87;95575.69;6122474;19;1818;-67
2022/10/20 01:18:05;;;;;;;;;;;;;;;18.67;44.32;95573.03;6126342;19;1857;-68
2022/10/20 01:20:24;;;;;;;;;;;;;;;18.68;44.46;95573.84;6128965;19;1412;-67
2022/10/20 01:22:33;;;;;;;;;;;;;;;18.69;44.22;95575.47;6113603;19;1427;-67
2022/10/20 01:24:51;;;;;;;;;;;;;;;18.68;44.31;95572.00;6125871;19;1532;-67
2022/10/20 01:27:09;;;;;;;;;;;;;;;18.69;44.49;95576.28;6125560;19;1439;-68
2022/10/20 01:29:21;;;;;;;;;;;;;;;18.69;44.39;95578.13;6126460;19;1729;-67
2022/10/20 01:31:28;;;;;;;;;;;;;;;18.70;44.60;95577.16;6128296;19;1424;-68
2022/10/20 01:33:36;;;;;;;;;;;;;;;18.71;44.32;95573.47;6111553;19;1045;-68
2022/10/20 01:35:43;;;;;;;;;;;;;;;18.69;44.22;95580.81;6127924;19;1668;-68
2022/10/20 01:37:50;;;;;;;;;;;;;;;18.71;44.20;95570.81;6125828;19;1861;-68
2022/10/20 01:39:52;;;;;;;;;;;;;;;18.70;44.48;95566.50;6127666;19;1727;-69
2022/10/20 01:41:58;;;;;;;;;;;;;;;18.71;44.33;95581.44;6128360;19;1490;-68
2022/10/20 01:44:02;;;;;;;;;;;;;;;18.71;44.25;95568.13;6125319;19;1029;-72
2022/10/20 01:46:10;;;;;;;;;;;;;;;18.80;44.11;95568.84;6113498;19;1498;-66
2022/10/20 01:48:15;;;;;;;;;;;;;;;18.81;44.42;95563.34;6124467;19;1113;-66
2022/10/20 01:50:20;;;;;;;;;;;;;;;18.83;43.92;95579.94;6126616;19;1867;-74
2022/10/20 01:52:23;;;;;;;;;;;;;;;18.81;43.76;95574.00;6127590;19;1729;-73
2022/10/20 01:54:28;;;;;;;;;;;;;;;18.81;44.29;95582.00;6126203;19;1626;-75
2022/10/20 01:56:37;;;;;;;;;;;;;;;18.69;44.40;95576.28;6109971;19;1124;-66
2022/10/20 01:58:59;;;;;;;;;;;;;;;18.78;44.20;95585.03;6123079;19;1861;-66
2022/10/20 02:01:11;;;;;;;;;;;;;;;18.79;44.13;95586.66;6125979;19;1506;-66
2022/10/20 02:03:30;;;;;;;;;;;;;;;18.78;44.32;95587.69;6123465;19;1140;-67
2022/10/20 02:05:41;;;;;;;;;;;;;;;18.74;44.43;95589.88;6122365;19;1262;-69
2022/10/20 02:07:45;;;;;;;;;;;;;;;18.77;44.08;95586.03;6109169;19;1145;-66
2022/10/20 02:09:50;;;;;;;;;;;;;;;18.79;44.30;95593.84;6124777;19;1584;-65
2022/10/20 02:11:57;;;;;;;;;;;;;;;18.78;44.17;95606.34;6126819;19;1745;-67
2022/10/20 02:14:01;;;;;;;;;;;;;;;18.77;44.31;95602.00;6128326;19;1750;-67
2022/10/20 02:16:09;;;;;;;;;;;;;;;18.77;44.40;95596.66;6127588;19;1859;-65
2022/10/20 02:18:13;;;;;;;;;;;;;;;18.77;44.41;95604.66;6122436;19;2035;-65
2022/10/20 02:20:17;;;;;;;;;;;;;;;18.77;44.58;95608.13;6109138;19;1796;-65
2022/10/20 02:22:24;;;;;;;;;;;;;;;18.76;44.12;95601.19;6125975;19;1854;-65
2022/10/20 02:24:29;;;;;;;;;;;;;;;18.77;44.27;95599.34;6126380;19;2063;-65
2022/10/20 02:26:33;;;;;;;;;;;;;;;18.77;44.23;95604.66;6123694;19;1112;-66
2022/10/20 02:28:39;;;;;;;;;;;;;;;18.76;44.20;95609.16;6119986;19;1792;-65
2022/10/20 02:30:43;;;;;;;;;;;;;;;18.77;44.10;95610.81;6114011;19;1822;-66
2022/10/20 02:32:51;;;;;;;;;;;;;;;18.76;44.28;95609.16;6123923;19;2716;-66
2022/10/20 02:34:54;;;;;;;;;;;;;;;18.78;44.52;95616.97;6126885;19;2034;-65
2022/10/20 02:36:59;;;;;;;;;;;;;;;18.77;44.49;95620.63;6124544;19;1577;-64
2022/10/20 02:39:05;;;;;;;;;;;;;;;18.77;44.29;95615.31;6121698;19;1846;-66
2022/10/20 02:41:08;;;;;;;;;;;;;;;18.78;44.47;95624.97;6126087;19;1977;-65
2022/10/20 02:43:11;;;;;;;;;;;;;;;18.77;44.41;95623.28;6107878;19;1241;-64
2022/10/20 02:45:15;;;;;;;;;;;;;;;18.78;44.48;95630.28;6123109;19;1081;-65
2022/10/20 02:47:19;;;;;;;;;;;;;;;18.77;44.66;95632.09;6125192;19;1828;-65
2022/10/20 02:49:24;;;;;;;;;;;;;;;18.77;44.38;95631.28;6125152;19;1511;-66
2022/10/20 02:51:27;;;;;;;;;;;;;;;18.76;44.24;95632.31;6122942;19;1034;-65
2022/10/20 02:53:30;;;;;;;;;;;;;;;18.77;44.50;95631.28;6115103;19;2004;-69
2022/10/20 02:55:36;;;;;;;;;;;;;;;18.77;44.47;95634.75;6117594;19;1738;-66
2022/10/20 02:57:39;;;;;;;;;;;;;;;18.77;44.80;95631.28;6126357;19;1853;-64
2022/10/20 02:59:43;;;;;;;;;;;;;;;18.81;44.22;95629.06;6122733;19;1509;-68
2022/10/20 03:01:46;;;;;;;;;;;;;;;18.81;44.45;95627.25;6125662;19;1751;-65
2022/10/20 03:03:49;;;;;;;;;;;;;;;18.82;44.51;95630.75;6125755;19;1786;-64
2022/10/20 03:05:52;;;;;;;;;;;;;;;18.84;44.39;95632.22;6107081;19;1705;-64
2022/10/20 03:07:56;;;;;;;;;;;;;;;18.68;43.83;95629.72;6123933;19;2132;-66
2022/10/20 03:09:59;;;;;;;;;;;;;;;17.90;43.27;95634.50;6123111;19;1549;-67
2022/10/20 03:12:06;;;;;;;;;;;;;;;17.53;43.31;95632.59;6125212;19;1477;-67
2022/10/20 03:14:09;;;;;;;;;;;;;;;17.37;43.07;95628.22;6126436;19;1828;-66
2022/10/20 03:16:13;;;;;;;;;;;;;;;17.22;43.19;95637.97;6117840;19;1415;-66
2022/10/20 03:18:16;;;;;;;;;;;;;;;17.14;43.26;95634.34;6115236;19;1891;-66
2022/10/20 03:20:19;;;;;;;;;;;;;;;17.07;43.01;95643.16;6122922;19;1088;-66
2022/10/20 03:22:23;;;;;;;;;;;;;;;17.04;43.27;95643.50;6123862;19;1676;-66
2022/10/20 03:24:26;;;;;;;;;;;;;;;17.01;42.88;95639.38;6125740;19;1667;-66
2022/10/20 03:26:29;;;;;;;;;;;;;;;17.00;43.39;95636.91;6122615;19;1507;-66
2022/10/20 03:28:36;;;;;;;;;;;;;;;16.95;42.96;95643.53;6108844;19;1704;-67
2022/10/20 03:30:39;;;;;;;;;;;;;;;16.92;43.43;95640.41;6123049;19;1790;-65
2022/10/20 03:32:43;;;;;;;;;;;;;;;16.92;43.05;95640.41;6124917;19;1686;-66
2022/10/20 03:34:46;;;;;;;;;;;;;;;16.85;43.77;95644.78;6122730;19;1037;-66
2022/10/20 03:36:50;;;;;;;;;;;;;;;16.86;43.73;95646.44;6121839;19;1832;-66
2022/10/20 03:38:54;;;;;;;;;;;;;;;16.85;43.63;95644.78;6119426;19;2080;-70
2022/10/20 03:40:57;;;;;;;;;;;;;;;17.12;44.19;95646.13;6112105;19;1747;-69
2022/10/20 03:43:01;;;;;;;;;;;;;;;17.37;43.77;95649.47;6122908;19;1945;-66
2022/10/20 03:45:07;;;;;;;;;;;;;;;17.40;43.42;95649.94;6124610;19;1574;-65
2022/10/20 03:47:11;;;;;;;;;;;;;;;17.48;42.96;95642.94;6124702;19;1559;-65
2022/10/20 03:49:15;;;;;;;;;;;;;;;17.49;42.95;95644.56;6124987;19;1850;-65
2022/10/20 03:51:18;;;;;;;;;;;;;;;17.50;42.83;95659.50;6103347;19;1453;-66
2022/10/20 03:53:21;;;;;;;;;;;;;;;17.50;42.83;95656.84;6122925;19;1747;-74
2022/10/20 03:55:25;;;;;;;;;;;;;;;17.59;42.65;95653.97;6124750;19;1314;-74
2022/10/20 03:57:28;;;;;;;;;;;;;;;17.54;42.85;95651.00;6123322;19;1045;-74
2022/10/20 03:59:31;;;;;;;;;;;;;;;17.52;42.92;95660.97;6120690;19;1854;-71
2022/10/20 04:01:37;;;;;;;;;;;;;;;17.58;43.23;95670.91;6117088;19;1699;-73
2022/10/20 04:03:40;;;;;;;;;;;;;;;17.64;42.80;95667.56;6114387;19;1514;-63
2022/10/20 04:05:44;;;;;;;;;;;;;;;17.59;42.71;95663.78;6121364;19;1739;-74
2022/10/20 04:07:47;;;;;;;;;;;;;;;17.68;43.28;95664.53;6123290;19;1054;-64
2022/10/20 04:09:50;;;;;;;;;;;;;;;17.68;42.83;95667.19;6123455;19;1541;-64
2022/10/20 04:11:54;;;;;;;;;;;;;;;17.69;42.34;95664.34;6125230;19;1423;-64
2022/10/20 04:13:58;;;;;;;;;;;;;;;17.58;42.68;95668.25;6105735;19;1646;-64
2022/10/20 04:16:01;;;;;;;;;;;;;;;17.60;42.88;95665.41;6121343;19;1530;-63
2022/10/20 04:18:07;;;;;;;;;;;;;;;17.60;42.60;95670.75;6123695;19;1850;-63
2022/10/20 04:20:11;;;;;;;;;;;;;;;17.63;42.69;95665.06;6123244;19;1720;-65
2022/10/20 04:22:15;;;;;;;;;;;;;;;17.51;42.61;95664.66;6121969;19;1673;-65
2022/10/20 04:24:18;;;;;;;;;;;;;;;17.60;42.52;95666.25;6117218;19;1065;-62
2022/10/20 04:26:21;;;;;;;;;;;;;;;17.77;42.54;95664.31;6099285;19;1217;-63
2022/10/20 04:28:25;;;;;;;;;;;;;;;17.89;42.50;95664.72;6118307;19;1625;-62
2022/10/20 04:30:28;;;;;;;;;;;;;;;17.96;42.21;95664.88;6117225;19;1314;-62
2022/10/20 04:32:32;;;;;;;;;;;;;;;18.00;42.50;95669.63;6117047;19;1273;-63
2022/10/20 04:34:37;;;;;;;;;;;;;;;18.04;42.35;95660.28;6119207;19;976;-63
2022/10/20 04:36:41;;;;;;;;;;;;;;;18.13;42.58;95662.88;6102534;19;1062;-64
2022/10/20 04:38:45;;;;;;;;;;;;;;;18.16;42.79;95668.66;6124964;19;1849;-62
2022/10/20 04:40:55;;;;;;;;;;;;;;;18.19;42.49;95660.31;6119891;19;1527;-62
2022/10/20 04:43:01;;;;;;;;;;;;;;;18.20;42.57;95661.16;6122474;19;1399;-63
2022/10/20 04:45:06;;;;;;;;;;;;;;;18.22;42.85;95664.47;6123546;19;1437;-62
2022/10/20 04:47:09;;;;;;;;;;;;;;;18.22;42.50;95665.28;6118123;19;1504;-64
2022/10/20 04:49:12;;;;;;;;;;;;;;;18.23;42.77;95666.91;6099978;19;1248;-64
2022/10/20 04:51:18;;;;;;;;;;;;;;;18.25;42.27;95670.22;6114840;19;1499;-62
2022/10/20 04:53:22;;;;;;;;;;;;;;;18.26;42.68;95668.41;6117532;19;1514;-64
2022/10/20 04:55:25;;;;;;;;;;;;;;;18.27;42.52;95675.38;6118723;19;1136;-63
2022/10/20 04:57:29;;;;;;;;;;;;;;;18.27;42.22;95673.56;6119316;19;1070;-63
2022/10/20 04:59:32;;;;;;;;;;;;;;;18.28;42.37;95682.34;6101000;19;1844;-63
2022/10/20 05:01:39;;;;;;;;;;;;;;;18.30;42.12;95685.66;6116245;19;1111;-63
2022/10/20 05:03:42;;;;;;;;;;;;;;;18.28;42.18;95680.50;6119386;19;978;-63
2022/10/20 05:05:46;;;;;;;;;;;;;;;18.31;42.22;95687.31;6118792;19;1290;-63
2022/10/20 05:07:52;;;;;;;;;;;;;;;18.32;42.26;95694.28;6119266;19;1466;-65
2022/10/20 05:09:55;;;;;;;;;;;;;;;18.32;42.27;95696.94;6116441;19;1473;-70
2022/10/20 05:11:58;;;;;;;;;;;;;;;18.32;42.31;95699.59;6103213;19;1223;-63
2022/10/20 05:14:02;;;;;;;;;;;;;;;18.32;42.61;95700.44;6119040;19;1046;-65
2022/10/20 05:16:06;;;;;;;;;;;;;;;18.34;42.98;95700.25;6116736;19;1402;-63
2022/10/20 05:18:09;;;;;;;;;;;;;;;18.35;42.97;95696.56;6117279;19;1483;-63
2022/10/20 05:20:12;;;;;;;;;;;;;;;18.33;42.88;95696.75;6117921;19;1841;-74
2022/10/20 05:22:16;;;;;;;;;;;;;;;18.36;42.86;95708.88;6106120;19;1045;-64
2022/10/20 05:24:22;;;;;;;;;;;;;;;18.38;42.87;95712.19;6118632;19;1037;-64
2022/10/20 05:26:27;;;;;;;;;;;;;;;18.40;43.26;95712.00;6119380;19;1041;-64
2022/10/20 05:28:30;;;;;;;;;;;;;;;18.41;43.30;95711.84;6119648;19;1065;-65
2022/10/20 05:30:33;;;;;;;;;;;;;;;18.41;43.63;95722.47;6118375;19;950;-68
2022/10/20 05:32:37;;;;;;;;;;;;;;;18.41;43.42;95719.81;6117079;19;1574;-66
2022/10/20 05:34:40;;;;;;;;;;;;;;;18.43;43.53;95728.44;6104029;19;1223;-64
2022/10/20 05:36:43;;;;;;;;;;;;;;;18.44;43.93;95731.91;6118693;19;1053;-65
2022/10/20 05:38:47;;;;;;;;;;;;;;;18.44;43.91;95740.75;6117882;19;1841;-64
2022/10/20 05:40:53;;;;;;;;;;;;;;;18.45;43.61;95737.06;6119096;19;956;-64
2022/10/20 05:42:56;;;;;;;;;;;;;;;18.46;43.49;95743.19;6118766;19;1049;-64
2022/10/20 05:45:00;;;;;;;;;;;;;;;18.47;43.77;95755.53;6102337;19;1081;-67
2022/10/20 05:47:03;;;;;;;;;;;;;;;18.51;43.92;95754.97;6117962;19;1582;-65
2022/10/20 05:49:07;;;;;;;;;;;;;;;18.52;43.90;95761.09;6118659;19;1052;-64
2022/10/20 05:51:11;;;;;;;;;;;;;;;18.53;43.89;95766.25;6118424;19;1029;-65
2022/10/20 05:53:15;;;;;;;;;;;;;;;18.53;43.79;95771.59;6117581;19;1161;-65
2022/10/20 05:55:20;;;;;;;;;;;;;;;18.52;44.17;95771.75;6116136;19;1382;-64
2022/10/20 05:57:26;;;;;;;;;;;;;;;18.52;43.90;95777.94;6101952;19;1583;-65
2022/10/20 05:59:31;;;;;;;;;;;;;;;18.51;44.29;95776.25;6117348;19;1846;-64
2022/10/20 06:01:46;;;;;;;;;;;;;;;18.52;43.87;95780.59;6115757;19;1535;-66
2022/10/20 06:03:50;;;;;;;;;;;;;;;18.51;44.20;95786.91;6120971;19;1157;-65
2022/10/20 06:05:58;;;;;;;;;;;;;;;18.52;43.86;95793.03;6122100;19;1504;-68
2022/10/20 06:08:01;;;;;;;;;;;;;;;18.53;43.78;95792.06;6105960;19;1139;-64
2022/10/20 06:10:05;;;;;;;;;;;;;;;18.52;43.78;95793.91;6124305;19;1092;-64
2022/10/20 06:12:08;;;;;;;;;;;;;;;18.53;43.93;95800.03;6124146;19;1120;-66
2022/10/20 06:14:14;;;;;;;;;;;;;;;18.54;44.17;95810.50;6124038;19;1025;-65
2022/10/20 06:16:19;;;;;;;;;;;;;;;18.53;44.20;95803.53;6123372;19;1136;-66
2022/10/20 06:18:22;;;;;;;;;;;;;;;18.53;43.90;95800.84;6116791;19;1098;-68
2022/10/20 06:20:26;;;;;;;;;;;;;;;18.54;43.83;95807.81;6113156;19;1838;-66
2022/10/20 06:22:29;;;;;;;;;;;;;;;18.54;43.96;95807.00;6123793;19;1029;-64
2022/10/20 06:24:33;;;;;;;;;;;;;;;18.57;43.67;95821.78;6124180;19;1097;-64
2022/10/20 06:26:38;;;;;;;;;;;;;;;18.57;43.29;95816.47;6123679;19;1121;-64
2022/10/20 06:28:42;;;;;;;;;;;;;;;18.55;43.51;95812.16;6124520;19;970;-76
2022/10/20 06:30:48;;;;;;;;;;;;;;;18.57;43.27;95816.47;6111428;19;1129;-75
2022/10/20 06:32:55;;;;;;;;;;;;;;;18.55;43.36;95820.16;6124969;19;1045;-75
2022/10/20 06:34:58;;;;;;;;;;;;;;;18.54;43.41;95818.47;6125379;19;954;-76
2022/10/20 06:37:01;;;;;;;;;;;;;;;18.56;43.52;95826.28;6121649;19;1375;-65
2022/10/20 06:39:06;;;;;;;;;;;;;;;18.55;43.60;95819.28;6124102;19;1843;-66
2022/10/20 06:41:10;;;;;;;;;;;;;;;18.62;43.33;95814.09;6115430;19;1070;-65
2022/10/20 06:43:13;;;;;;;;;;;;;;;18.67;43.40;95825.06;6114781;19;1031;-66
2022/10/20 06:45:17;;;;;;;;;;;;;;;18.69;43.69;95825.69;6123222;19;978;-65
2022/10/20 06:47:23;;;;;;;;;;;;;;;18.69;43.82;95823.03;6121164;19;1408;-65
2022/10/20 06:49:26;;;;;;;;;;;;;;;18.67;43.53;95827.75;6123729;19;918;-64
2022/10/20 06:51:30;;;;;;;;;;;;;;;18.68;43.83;95824.88;6121038;19;1356;-63
2022/10/20 06:53:35;;;;;;;;;;;;;;;18.69;43.97;95828.38;6104682;19;1320;-67
2022/10/20 06:55:38;;;;;;;;;;;;;;;18.68;43.86;95829.38;6123216;19;1056;-64
2022/10/20 06:57:42;;;;;;;;;;;;;;;18.68;43.67;95824.06;6122777;19;1117;-65
2022/10/20 06:59:45;;;;;;;;;;;;;;;18.69;43.79;95823.03;6121082;19;1857;-65
2022/10/20 07:01:49;;;;;;;;;;;;;;;18.69;44.12;95842.50;6123242;19;907;-64
2022/10/20 07:03:56;;;;;;;;;;;;;;;18.71;43.63;95834.34;6114456;19;1046;-63
2022/10/20 07:05:59;;;;;;;;;;;;;;;18.70;44.00;95836.19;6113384;19;1306;-65
2022/10/20 07:08:03;;;;;;;;;;;;;;;18.71;43.63;95832.50;6122665;19;1064;-66
2022/10/20 07:10:07;;;;;;;;;;;;;;;18.69;43.48;95836.34;6122714;19;1303;-66
2022/10/20 07:12:10;;;;;;;;;;;;;;;18.44;43.82;95833.88;6122558;19;1054;-65
2022/10/20 07:14:14;;;;;;;;;;;;;;;18.30;43.75;95842.63;6121607;19;1121;-67
2022/10/20 07:16:18;;;;;;;;;;;;;;;18.19;43.68;95849.19;6108280;19;1034;-67
2022/10/20 07:18:21;;;;;;;;;;;;;;;18.20;43.54;95834.88;6122559;19;1477;-65
2022/10/20 07:20:27;;;;;;;;;;;;;;;18.27;43.06;95835.81;6121475;19;1871;-65
2022/10/20 07:22:32;;;;;;;;;;;;;;;18.15;43.35;95845.19;6122405;19;1025;-66
2022/10/20 07:24:35;;;;;;;;;;;;;;;18.05;43.48;95840.13;6122046;19;1116;-65
2022/10/20 07:26:40;;;;;;;;;;;;;;;17.98;43.15;95841.84;6114460;19;1164;-65
2022/10/20 07:28:45;;;;;;;;;;;;;;;17.90;43.31;95838.38;6114154;19;1052;-66
2022/10/20 07:30:48;;;;;;;;;;;;;;;17.91;43.54;95840.03;6122451;19;1132;-65
2022/10/20 07:32:51;;;;;;;;;;;;;;;17.83;43.21;95836.41;6122518;19;1013;-65
2022/10/20 07:34:55;;;;;;;;;;;;;;;17.94;42.85;95837.03;6121672;19;1010;-66
2022/10/20 07:37:01;;;;;;;;;;;;;;;17.93;42.72;95838.88;6121471;19;1034;-65
2022/10/20 07:39:06;;;;;;;;;;;;;;;17.86;43.13;95835.22;6106902;19;1129;-66
2022/10/20 07:41:10;;;;;;;;;;;;;;;17.91;42.93;95838.22;6120901;19;1853;-66
2022/10/20 07:43:13;;;;;;;;;;;;;;;17.93;42.76;95852.16;6121879;19;1116;-68
2022/10/20 07:45:16;;;;;;;;;;;;;;;17.88;42.36;95834.06;6121420;19;1184;-66
2022/10/20 07:47:20;;;;;;;;;;;;;;;17.80;42.85;95835.94;6121876;19;1081;-65
2022/10/20 07:49:23;;;;;;;;;;;;;;;17.66;43.17;95829.47;6113990;19;1073;-65
2022/10/20 07:51:29;;;;;;;;;;;;;;;17.73;43.00;95832.31;6113362;19;1132;-66
2022/10/20 07:53:35;;;;;;;;;;;;;;;17.82;42.77;95828.63;6121766;19;1032;-66
2022/10/20 07:55:39;;;;;;;;;;;;;;;17.70;42.77;95830.81;6121287;19;1120;-66
2022/10/20 07:57:42;;;;;;;;;;;;;;;17.71;42.59;95827.13;6121324;19;1132;-66
2022/10/20 07:59:45;;;;;;;;;;;;;;;17.73;42.46;95830.47;6120429;19;1868;-65
2022/10/20 08:01:49;;;;;;;;;;;;;;;17.79;42.51;95828.97;6105751;19;1095;-65
2022/10/20 08:03:52;;;;;;;;;;;;;;;17.74;42.18;95833.97;6121076;19;1162;-65
2022/10/20 08:05:56;;;;;;;;;;;;;;;17.71;42.19;95837.78;6120304;19;1286;-65
2022/10/20 08:07:59;;;;;;;;;;;;;;;17.69;42.61;95834.44;6121210;19;1049;-65
2022/10/20 08:10:06;;;;;;;;;;;;;;;17.61;42.47;95832.69;6119898;19;1426;-66
2022/10/20 08:12:09;;;;;;;;;;;;;;;17.72;42.30;95835.94;6113153;19;1140;-66
2022/10/20 08:14:12;;;;;;;;;;;;;;;17.76;41.93;95838.13;6112590;19;1025;-66
2022/10/20 08:16:17;;;;;;;;;;;;;;;17.77;41.73;95841.59;6121225;19;1088;-66
2022/10/20 08:18:20;;;;;;;;;;;;;;;17.76;41.77;95831.97;6120534;19;1018;-65
2022/10/20 08:20:23;;;;;;;;;;;;;;;17.69;42.11;95833.63;6120017;19;1843;-65
2022/10/20 08:22:27;;;;;;;;;;;;;;;17.65;42.21;95831.31;6120562;19;1026;-65
2022/10/20 08:24:30;;;;;;;;;;;;;;;17.69;42.23;95828.31;6102816;19;1444;-65
2022/10/20 08:26:36;;;;;;;;;;;;;;;17.71;41.74;95828.97;6118999;19;1074;-68
2022/10/20 08:28:40;;;;;;;;;;;;;;;17.69;41.68;95837.13;6120164;19;1037;-65
2022/10/20 08:30:43;;;;;;;;;;;;;;;17.66;41.68;95832.97;6120260;19;1054;-65
2022/10/20 08:32:46;;;;;;;;;;;;;;;17.77;41.52;95825.66;6120438;19;1017;-66
2022/10/20 08:34:50;;;;;;;;;;;;;;;17.73;41.65;95829.63;6111419;19;1035;-66
2022/10/20 08:36:53;;;;;;;;;;;;;;;17.77;41.39;95823.00;6115943;19;1101;-68
2022/10/20 08:38:56;;;;;;;;;;;;;;;17.82;41.34;95820.66;6120545;19;1018;-65
2022/10/20 08:41:00;;;;;;;;;;;;;;;17.75;41.09;95835.63;6119545;19;1841;-66
2022/10/20 08:43:06;;;;;;;;;;;;;;;17.69;41.43;95828.31;6119888;19;1044;-65
2022/10/20 08:45:16;;;;;;;;;;;;;;;17.78;41.02;95821.97;6120217;19;1005;-65
2022/10/20 08:47:25;;;;;;;;;;;;;;;17.90;41.14;95811.78;6104444;19;1026;-64
2022/10/20 08:49:30;;;;;;;;;;;;;;;17.98;41.55;95822.38;6119881;19;1124;-64
2022/10/20 08:51:37;;;;;;;;;;;;;;;18.04;41.40;95809.22;6119054;19;966;-66
2022/10/20 08:53:41;;;;;;;;;;;;;;;18.12;41.23;95816.28;6119602;19;1023;-64
2022/10/20 08:55:45;;;;;;;;;;;;;;;18.16;41.66;95806.16;6117581;19;1461;-62
2022/10/20 08:57:50;;;;;;;;;;;;;;;18.20;41.59;95813.59;6101885;19;1318;-65
2022/10/20 08:59:58;;;;;;;;;;;;;;;18.23;41.38;95812.41;6117470;19;1366;-68
2022/10/20 09:02:01;;;;;;;;;;;;;;;18.24;41.25;95825.53;6119141;19;1140;-65
2022/10/20 09:04:05;;;;;;;;;;;;;;;18.25;41.51;95813.06;6119497;19;1069;-64
2022/10/20 09:06:10;;;;;;;;;;;;;;;18.25;41.21;95810.41;6118158;19;1295;-65
2022/10/20 09:08:14;;;;;;;;;;;;;;;18.25;40.97;95824.53;6117680;19;1050;-70
2022/10/20 09:10:24;;;;;;;;;;;;;;;18.25;40.95;95818.38;6105526;19;1067;-65
2022/10/20 09:12:29;;;;;;;;;;;;;;;18.27;40.91;95824.38;6118844;19;970;-64
2022/10/20 09:14:34;;;;;;;;;;;;;;;18.26;41.07;95815.53;6118807;19;1062;-65
2022/10/20 09:16:42;;;;;;;;;;;;;;;18.28;41.05;95826.00;6118721;19;1065;-64
2022/10/20 09:18:45;;;;;;;;;;;;;;;18.28;41.28;95820.69;6118957;19;1653;-64
2022/10/20 09:20:52;;;;;;;;;;;;;;;18.30;40.98;95818.69;6099799;19;1838;-65
2022/10/20 09:22:56;;;;;;;;;;;;;;;18.31;41.12;95818.50;6118555;19;1132;-65
2022/10/20 09:24:59;;;;;;;;;;;;;;;18.34;41.10;95822.63;6119068;19;1014;-63
2022/10/20 09:27:19;;;;;;;;;;;;;;;18.33;41.10;95823.66;6118688;19;1016;-65
2022/10/20 09:29:23;;;;;;;;;;;;;;;18.35;41.39;95828.78;6119367;19;1025;-64
2022/10/20 09:31:36;;;;;;;;;;;;;;;18.36;41.48;95815.31;6109687;19;1122;-65
2022/10/20 09:33:42;;;;;;;;;;;;;;;18.38;41.75;95818.63;6113113;19;993;-65
2022/10/20 09:35:48;;;;;;;;;;;;;;;18.38;41.58;95823.94;6117355;19;1441;-65
2022/10/20 09:38:03;;;;;;;;;;;;;;;18.39;41.99;95828.25;6122343;19;1014;-64
2022/10/20 09:40:15;;;;;;;;;;;;;;;18.40;42.03;95821.09;6125084;19;1065;-63
2022/10/20 09:42:21;;;;;;;;;;;;;;;18.38;41.73;95821.28;6122738;19;1081;-64
2022/10/20 09:44:25;;;;;;;;;;;;;;;18.40;42.17;95818.44;6113428;19;1618;-63
2022/10/20 09:46:30;;;;;;;;;;;;;;;18.42;42.17;95817.25;6125076;19;970;-63
2022/10/20 09:48:35;;;;;;;;;;;;;;;18.41;41.98;95812.94;6125087;19;1646;-69
2022/10/20 09:50:42;;;;;;;;;;;;;;;18.41;41.99;95812.94;6124895;19;1029;-64
2022/10/20 09:52:48;;;;;;;;;;;;;;;18.43;42.31;95816.22;6124888;19;1084;-64
2022/10/20 09:54:52;;;;;;;;;;;;;;;18.43;42.04;95818.06;6108787;19;1425;-63
2022/10/20 09:57:05;;;;;;;;;;;;;;;18.44;42.15;95796.63;6124031;19;1014;-63
2022/10/20 09:59:11;;;;;;;;;;;;;;;18.44;42.49;95801.94;6124767;19;951;-63
2022/10/20 10:01:16;;;;;;;;;;;;;;;18.45;42.47;95811.56;6122733;19;1871;-65
2022/10/20 10:03:23;;;;;;;;;;;;;;;18.46;42.46;95799.91;6124027;19;1140;-68
2022/10/20 10:05:34;;;;;;;;;;;;;;;18.47;42.32;95801.59;6113987;19;1263;-67
2022/10/20 10:07:40;;;;;;;;;;;;;;;18.46;42.28;95807.88;6115329;19;1101;-66
2022/10/20 10:09:52;;;;;;;;;;;;;;;18.45;42.55;95808.91;6123849;19;1062;-66
2022/10/20 10:11:59;;;;;;;;;;;;;;;18.48;42.58;95800.56;6123709;19;1025;-61
2022/10/20 10:14:03;;;;;;;;;;;;;;;18.50;42.39;95801.22;6124120;19;970;-61
2022/10/20 10:16:09;;;;;;;;;;;;;;;18.49;42.57;95794.22;6123899;19;1034;-60
2022/10/20 10:18:16;;;;;;;;;;;;;;;18.52;42.79;95798.38;6105758;19;1252;-60
2022/10/20 10:20:30;;;;;;;;;;;;;;;18.51;42.64;95789.56;6123565;19;1048;-61
2022/10/20 10:22:33;;;;;;;;;;;;;;;18.52;42.52;95793.03;6124090;19;1258;-66
2022/10/20 10:24:54;;;;;;;;;;;;;;;18.51;42.87;95791.41;6123877;19;1048;-61
2022/10/20 10:27:01;;;;;;;;;;;;;;;18.52;42.86;95793.03;6122291;19;1045;-61
2022/10/20 10:29:05;;;;;;;;;;;;;;;18.50;42.91;95787.91;6106194;19;1503;-60
2022/10/20 10:31:23;;;;;;;;;;;;;;;18.52;42.83;95785.91;6124209;19;2620;-60
2022/10/20 10:33:27;;;;;;;;;;;;;;;18.51;43.00;95786.91;6123021;19;1050;-61
2022/10/20 10:35:33;;;;;;;;;;;;;;;18.53;42.68;95784.06;6123191;19;1021;-61
2022/10/20 10:37:38;;;;;;;;;;;;;;;18.53;42.99;95786.72;6123355;19;1558;-61
2022/10/20 10:39:42;;;;;;;;;;;;;;;18.54;43.13;95777.72;6113760;19;1119;-61
2022/10/20 10:41:54;;;;;;;;;;;;;;;18.53;43.14;95771.59;6113040;19;1857;-60
2022/10/20 10:44:04;;;;;;;;;;;;;;;18.54;43.17;95780.38;6123190;19;1538;-60
2022/10/20 10:46:08;;;;;;;;;;;;;;;18.54;43.41;95770.56;6122990;19;974;-62
2022/10/20 10:48:26;;;;;;;;;;;;;;;18.56;43.41;95767.75;6122820;19;1026;-60
2022/10/20 10:50:34;;;;;;;;;;;;;;;18.55;43.26;95769.56;6115386;19;1081;-67
2022/10/20 10:52:43;;;;;;;;;;;;;;;18.57;43.28;95764.06;6113756;19;1221;-62
2022/10/20 10:54:59;;;;;;;;;;;;;;;18.62;43.07;95771.50;6122907;19;1013;-62
2022/10/20 10:57:06;;;;;;;;;;;;;;;18.61;43.30;95770.69;6122568;19;958;-61
2022/10/20 10:59:20;;;;;;;;;;;;;;;18.61;43.07;95764.53;6123264;19;1025;-62
2022/10/20 11:01:33;;;;;;;;;;;;;;;18.61;43.15;95769.84;6121374;19;1845;-61